sensor_id;sensor_type;location;lat;lon;timestamp;P1;durP1;ratioP1;P2;durP2;ratioP2
55015;SDS011;40919;43.236;21.590;2023-06-24T00:02:17;16.77;;;15.00;;
55015;SDS011;40919;43.236;21.590;2023-06-24T00:04:43;20.05;;;14.13;;
55015;SDS011;40919;43.236;21.590;2023-06-24T00:07:08;17.80;;;15.25;;
55015;SDS011;40919;43.236;21.590;2023-06-24T00:09:34;16.58;;;13.90;;
55015;SDS011;40919;43.236;21.590;2023-06-24T00:12:01;21.42;;;15.60;;
55015;SDS011;40919;43.236;21.590;2023-06-24T00:14:27;21.10;;;15.40;;
55015;SDS011;40919;43.236;21.590;2023-06-24T00:16:53;18.42;;;14.93;;
55015;SDS011;40919;43.236;21.590;2023-06-24T00:19:20;23.40;;;15.57;;
55015;SDS011;40919;43.236;21.590;2023-06-24T00:21:50;19.35;;;15.60;;
55015;SDS011;40919;43.236;21.590;2023-06-24T00:24:20;20.13;;;15.80;;
55015;SDS011;40919;43.236;21.590;2023-06-24T00:26:50;19.88;;;15.25;;
55015;SDS011;40919;43.236;21.590;2023-06-24T00:29:17;18.20;;;16.27;;
55015;SDS011;40919;43.236;21.590;2023-06-24T00:31:42;20.38;;;16.98;;
55015;SDS011;40919;43.236;21.590;2023-06-24T00:34:08;20.45;;;16.00;;
55015;SDS011;40919;43.236;21.590;2023-06-24T00:36:34;22.88;;;17.25;;
55015;SDS011;40919;43.236;21.590;2023-06-24T00:39:01;22.20;;;17.05;;
55015;SDS011;40919;43.236;21.590;2023-06-24T00:41:33;20.92;;;18.05;;
55015;SDS011;40919;43.236;21.590;2023-06-24T00:43:59;23.70;;;17.85;;
55015;SDS011;40919;43.236;21.590;2023-06-24T00:46:26;23.20;;;17.15;;
55015;SDS011;40919;43.236;21.590;2023-06-24T00:48:54;21.98;;;17.38;;
55015;SDS011;40919;43.236;21.590;2023-06-24T00:51:21;17.88;;;15.98;;
55015;SDS011;40919;43.236;21.590;2023-06-24T00:53:51;18.80;;;16.73;;
55015;SDS011;40919;43.236;21.590;2023-06-24T00:56:18;19.77;;;15.48;;
55015;SDS011;40919;43.236;21.590;2023-06-24T00:58:47;27.50;;;16.05;;
55015;SDS011;40919;43.236;21.590;2023-06-24T01:01:13;19.08;;;15.25;;
55015;SDS011;40919;43.236;21.590;2023-06-24T01:03:39;20.15;;;15.32;;
55015;SDS011;40919;43.236;21.590;2023-06-24T01:06:05;19.63;;;16.23;;
55015;SDS011;40919;43.236;21.590;2023-06-24T01:08:33;19.58;;;16.00;;
55015;SDS011;40919;43.236;21.590;2023-06-24T01:11:00;25.45;;;16.98;;
55015;SDS011;40919;43.236;21.590;2023-06-24T01:13:25;18.95;;;16.35;;
55015;SDS011;40919;43.236;21.590;2023-06-24T01:15:51;21.08;;;17.05;;
55015;SDS011;40919;43.236;21.590;2023-06-24T01:18:32;20.02;;;17.30;;
55015;SDS011;40919;43.236;21.590;2023-06-24T01:26:45;20.13;;;16.08;;
55015;SDS011;40919;43.236;21.590;2023-06-24T01:29:37;23.83;;;17.17;;
55015;SDS011;40919;43.236;21.590;2023-06-24T01:32:29;23.17;;;16.65;;
55015;SDS011;40919;43.236;21.590;2023-06-24T01:35:11;22.48;;;16.48;;
55015;SDS011;40919;43.236;21.590;2023-06-24T01:37:42;22.48;;;16.33;;
55015;SDS011;40919;43.236;21.590;2023-06-24T01:42:53;19.88;;;15.98;;
55015;SDS011;40919;43.236;21.590;2023-06-24T01:45:23;21.30;;;15.27;;
55015;SDS011;40919;43.236;21.590;2023-06-24T01:48:27;28.83;;;19.23;;
55015;SDS011;40919;43.236;21.590;2023-06-24T01:51:09;27.00;;;18.05;;
55015;SDS011;40919;43.236;21.590;2023-06-24T01:53:38;22.23;;;18.08;;
55015;SDS011;40919;43.236;21.590;2023-06-24T01:56:08;23.08;;;17.90;;
55015;SDS011;40919;43.236;21.590;2023-06-24T01:58:37;22.02;;;16.38;;
55015;SDS011;40919;43.236;21.590;2023-06-24T02:01:05;24.38;;;16.77;;
55015;SDS011;40919;43.236;21.590;2023-06-24T02:03:32;20.63;;;17.20;;
55015;SDS011;40919;43.236;21.590;2023-06-24T02:05:59;23.85;;;17.30;;
55015;SDS011;40919;43.236;21.590;2023-06-24T02:08:29;21.40;;;16.33;;
55015;SDS011;40919;43.236;21.590;2023-06-24T02:10:58;21.77;;;16.85;;
55015;SDS011;40919;43.236;21.590;2023-06-24T02:13:26;18.33;;;16.20;;
55015;SDS011;40919;43.236;21.590;2023-06-24T02:15:56;19.85;;;16.50;;
55015;SDS011;40919;43.236;21.590;2023-06-24T02:18:24;24.50;;;17.55;;
55015;SDS011;40919;43.236;21.590;2023-06-24T02:20:52;31.17;;;16.25;;
55015;SDS011;40919;43.236;21.590;2023-06-24T02:23:21;25.02;;;16.42;;
55015;SDS011;40919;43.236;21.590;2023-06-24T02:25:47;20.40;;;14.70;;
55015;SDS011;40919;43.236;21.590;2023-06-24T02:28:15;19.52;;;14.23;;
55015;SDS011;40919;43.236;21.590;2023-06-24T02:30:42;19.30;;;15.73;;
55015;SDS011;40919;43.236;21.590;2023-06-24T02:33:09;23.30;;;16.23;;
55015;SDS011;40919;43.236;21.590;2023-06-24T02:35:36;23.48;;;15.25;;
55015;SDS011;40919;43.236;21.590;2023-06-24T02:38:03;22.95;;;16.45;;
55015;SDS011;40919;43.236;21.590;2023-06-24T02:40:29;26.98;;;14.63;;
55015;SDS011;40919;43.236;21.590;2023-06-24T02:42:56;22.27;;;14.57;;
55015;SDS011;40919;43.236;21.590;2023-06-24T02:45:23;21.48;;;11.63;;
55015;SDS011;40919;43.236;21.590;2023-06-24T02:47:49;21.30;;;12.85;;
55015;SDS011;40919;43.236;21.590;2023-06-24T02:50:16;26.02;;;11.25;;
55015;SDS011;40919;43.236;21.590;2023-06-24T02:52:42;26.20;;;11.70;;
55015;SDS011;40919;43.236;21.590;2023-06-24T02:55:08;22.60;;;11.48;;
55015;SDS011;40919;43.236;21.590;2023-06-24T02:57:35;24.90;;;12.55;;
55015;SDS011;40919;43.236;21.590;2023-06-24T03:00:02;26.38;;;12.15;;
55015;SDS011;40919;43.236;21.590;2023-06-24T03:02:34;26.10;;;13.20;;
55015;SDS011;40919;43.236;21.590;2023-06-24T03:05:01;21.45;;;12.95;;
55015;SDS011;40919;43.236;21.590;2023-06-24T03:07:37;23.77;;;11.98;;
55015;SDS011;40919;43.236;21.590;2023-06-24T03:10:03;24.50;;;13.10;;
55015;SDS011;40919;43.236;21.590;2023-06-24T03:12:31;27.38;;;13.73;;
55015;SDS011;40919;43.236;21.590;2023-06-24T03:14:57;27.38;;;12.93;;
55015;SDS011;40919;43.236;21.590;2023-06-24T03:17:22;25.77;;;13.93;;
55015;SDS011;40919;43.236;21.590;2023-06-24T03:19:49;25.45;;;15.23;;
55015;SDS011;40919;43.236;21.590;2023-06-24T03:22:15;36.17;;;16.65;;
55015;SDS011;40919;43.236;21.590;2023-06-24T03:24:42;33.22;;;16.00;;
55015;SDS011;40919;43.236;21.590;2023-06-24T03:27:08;23.13;;;15.55;;
55015;SDS011;40919;43.236;21.590;2023-06-24T03:29:34;36.15;;;16.60;;
55015;SDS011;40919;43.236;21.590;2023-06-24T03:32:00;30.85;;;16.25;;
55015;SDS011;40919;43.236;21.590;2023-06-24T03:34:25;37.83;;;16.42;;
55015;SDS011;40919;43.236;21.590;2023-06-24T03:36:55;39.55;;;15.88;;
55015;SDS011;40919;43.236;21.590;2023-06-24T03:39:21;34.72;;;16.95;;
55015;SDS011;40919;43.236;21.590;2023-06-24T03:41:47;38.63;;;15.52;;
55015;SDS011;40919;43.236;21.590;2023-06-24T03:44:13;29.35;;;15.85;;
55015;SDS011;40919;43.236;21.590;2023-06-24T03:46:38;38.63;;;16.02;;
55015;SDS011;40919;43.236;21.590;2023-06-24T03:49:04;33.85;;;16.75;;
55015;SDS011;40919;43.236;21.590;2023-06-24T03:51:31;34.15;;;19.45;;
55015;SDS011;40919;43.236;21.590;2023-06-24T03:53:57;34.25;;;17.42;;
55015;SDS011;40919;43.236;21.590;2023-06-24T03:56:23;33.30;;;17.65;;
55015;SDS011;40919;43.236;21.590;2023-06-24T03:58:48;35.28;;;18.90;;
55015;SDS011;40919;43.236;21.590;2023-06-24T04:01:14;37.50;;;18.38;;
55015;SDS011;40919;43.236;21.590;2023-06-24T04:03:44;42.10;;;19.60;;
55015;SDS011;40919;43.236;21.590;2023-06-24T04:06:10;30.40;;;18.33;;
55015;SDS011;40919;43.236;21.590;2023-06-24T04:08:36;30.50;;;18.35;;
55015;SDS011;40919;43.236;21.590;2023-06-24T04:11:05;43.58;;;20.27;;
55015;SDS011;40919;43.236;21.590;2023-06-24T04:13:32;36.20;;;18.30;;
55015;SDS011;40919;43.236;21.590;2023-06-24T04:15:58;36.00;;;19.58;;
55015;SDS011;40919;43.236;21.590;2023-06-24T04:18:24;38.53;;;19.45;;
55015;SDS011;40919;43.236;21.590;2023-06-24T04:20:49;35.10;;;19.00;;
55015;SDS011;40919;43.236;21.590;2023-06-24T04:23:15;40.15;;;19.83;;
55015;SDS011;40919;43.236;21.590;2023-06-24T04:25:41;31.58;;;19.27;;
55015;SDS011;40919;43.236;21.590;2023-06-24T04:28:07;36.08;;;18.55;;
55015;SDS011;40919;43.236;21.590;2023-06-24T04:30:33;33.08;;;19.70;;
55015;SDS011;40919;43.236;21.590;2023-06-24T04:33:03;36.92;;;19.38;;
55015;SDS011;40919;43.236;21.590;2023-06-24T04:35:30;29.80;;;19.17;;
55015;SDS011;40919;43.236;21.590;2023-06-24T04:37:56;28.95;;;18.52;;
55015;SDS011;40919;43.236;21.590;2023-06-24T04:40:21;38.60;;;19.60;;
55015;SDS011;40919;43.236;21.590;2023-06-24T04:42:47;39.45;;;17.38;;
55015;SDS011;40919;43.236;21.590;2023-06-24T04:45:13;34.03;;;19.52;;
55015;SDS011;40919;43.236;21.590;2023-06-24T04:47:39;40.40;;;20.15;;
55015;SDS011;40919;43.236;21.590;2023-06-24T04:50:05;30.92;;;18.52;;
55015;SDS011;40919;43.236;21.590;2023-06-24T04:52:34;34.70;;;18.55;;
55015;SDS011;40919;43.236;21.590;2023-06-24T04:55:00;30.73;;;19.48;;
55015;SDS011;40919;43.236;21.590;2023-06-24T04:57:28;27.70;;;18.60;;
55015;SDS011;40919;43.236;21.590;2023-06-24T04:59:55;39.30;;;18.35;;
55015;SDS011;40919;43.236;21.590;2023-06-24T05:02:22;33.28;;;18.63;;
55015;SDS011;40919;43.236;21.590;2023-06-24T05:04:48;34.13;;;18.42;;
55015;SDS011;40919;43.236;21.590;2023-06-24T05:07:14;36.47;;;18.52;;
55015;SDS011;40919;43.236;21.590;2023-06-24T05:09:40;27.00;;;18.80;;
55015;SDS011;40919;43.236;21.590;2023-06-24T05:12:06;39.83;;;17.75;;
55015;SDS011;40919;43.236;21.590;2023-06-24T05:14:35;33.22;;;19.75;;
55015;SDS011;40919;43.236;21.590;2023-06-24T05:17:01;28.25;;;18.27;;
55015;SDS011;40919;43.236;21.590;2023-06-24T05:19:30;28.35;;;18.58;;
55015;SDS011;40919;43.236;21.590;2023-06-24T05:21:56;35.88;;;19.15;;
55015;SDS011;40919;43.236;21.590;2023-06-24T05:24:22;37.08;;;18.25;;
55015;SDS011;40919;43.236;21.590;2023-06-24T05:26:48;34.70;;;17.80;;
55015;SDS011;40919;43.236;21.590;2023-06-24T05:29:15;30.20;;;17.55;;
55015;SDS011;40919;43.236;21.590;2023-06-24T05:31:41;31.70;;;18.15;;
55015;SDS011;40919;43.236;21.590;2023-06-24T05:34:07;40.65;;;17.17;;
55015;SDS011;40919;43.236;21.590;2023-06-24T05:36:33;36.95;;;18.77;;
55015;SDS011;40919;43.236;21.590;2023-06-24T05:38:59;29.85;;;17.08;;
55015;SDS011;40919;43.236;21.590;2023-06-24T05:41:25;35.88;;;16.90;;
55015;SDS011;40919;43.236;21.590;2023-06-24T05:44:01;33.47;;;16.30;;
55015;SDS011;40919;43.236;21.590;2023-06-24T05:46:31;34.15;;;16.80;;
55015;SDS011;40919;43.236;21.590;2023-06-24T05:48:57;26.92;;;16.38;;
55015;SDS011;40919;43.236;21.590;2023-06-24T05:51:23;32.75;;;16.70;;
55015;SDS011;40919;43.236;21.590;2023-06-24T05:53:49;27.50;;;15.65;;
55015;SDS011;40919;43.236;21.590;2023-06-24T05:56:15;33.30;;;15.93;;
55015;SDS011;40919;43.236;21.590;2023-06-24T05:58:40;26.98;;;16.45;;
55015;SDS011;40919;43.236;21.590;2023-06-24T06:01:10;30.95;;;16.60;;
55015;SDS011;40919;43.236;21.590;2023-06-24T06:03:36;35.13;;;14.07;;
55015;SDS011;40919;43.236;21.590;2023-06-24T06:06:01;30.13;;;14.82;;
55015;SDS011;40919;43.236;21.590;2023-06-24T06:08:27;31.85;;;15.57;;
55015;SDS011;40919;43.236;21.590;2023-06-24T06:10:53;31.73;;;15.93;;
55015;SDS011;40919;43.236;21.590;2023-06-24T06:13:19;27.52;;;15.88;;
55015;SDS011;40919;43.236;21.590;2023-06-24T06:15:45;23.90;;;14.48;;
55015;SDS011;40919;43.236;21.590;2023-06-24T06:18:11;24.20;;;15.27;;
55015;SDS011;40919;43.236;21.590;2023-06-24T06:20:37;31.88;;;16.08;;
55015;SDS011;40919;43.236;21.590;2023-06-24T06:23:03;27.63;;;15.32;;
55015;SDS011;40919;43.236;21.590;2023-06-24T06:25:29;21.05;;;14.60;;
55015;SDS011;40919;43.236;21.590;2023-06-24T06:27:55;30.00;;;15.15;;
55015;SDS011;40919;43.236;21.590;2023-06-24T06:30:20;29.27;;;13.90;;
55015;SDS011;40919;43.236;21.590;2023-06-24T06:32:46;26.67;;;13.98;;
55015;SDS011;40919;43.236;21.590;2023-06-24T06:35:12;25.48;;;13.98;;
55015;SDS011;40919;43.236;21.590;2023-06-24T06:37:37;22.65;;;13.90;;
55015;SDS011;40919;43.236;21.590;2023-06-24T06:40:03;22.75;;;14.07;;
55015;SDS011;40919;43.236;21.590;2023-06-24T06:42:30;30.42;;;14.20;;
55015;SDS011;40919;43.236;21.590;2023-06-24T06:44:55;30.13;;;13.95;;
55015;SDS011;40919;43.236;21.590;2023-06-24T06:47:22;21.98;;;14.18;;
55015;SDS011;40919;43.236;21.590;2023-06-24T06:49:48;25.17;;;15.30;;
55015;SDS011;40919;43.236;21.590;2023-06-24T06:52:13;27.02;;;14.55;;
55015;SDS011;40919;43.236;21.590;2023-06-24T06:54:39;21.75;;;14.38;;
55015;SDS011;40919;43.236;21.590;2023-06-24T06:57:05;21.33;;;15.10;;
55015;SDS011;40919;43.236;21.590;2023-06-24T06:59:31;27.83;;;13.82;;
55015;SDS011;40919;43.236;21.590;2023-06-24T07:01:57;24.27;;;15.40;;
55015;SDS011;40919;43.236;21.590;2023-06-24T07:04:24;30.08;;;14.98;;
55015;SDS011;40919;43.236;21.590;2023-06-24T07:06:49;24.15;;;15.02;;
55015;SDS011;40919;43.236;21.590;2023-06-24T07:09:16;23.80;;;14.18;;
55015;SDS011;40919;43.236;21.590;2023-06-24T07:11:42;30.05;;;15.40;;
55015;SDS011;40919;43.236;21.590;2023-06-24T07:14:08;30.50;;;14.70;;
55015;SDS011;40919;43.236;21.590;2023-06-24T07:16:34;24.63;;;15.82;;
55015;SDS011;40919;43.236;21.590;2023-06-24T07:19:00;23.48;;;15.10;;
55015;SDS011;40919;43.236;21.590;2023-06-24T07:21:26;26.45;;;14.70;;
55015;SDS011;40919;43.236;21.590;2023-06-24T07:23:52;25.20;;;14.82;;
55015;SDS011;40919;43.236;21.590;2023-06-24T07:26:17;22.00;;;14.98;;
55015;SDS011;40919;43.236;21.590;2023-06-24T07:28:43;23.25;;;15.15;;
55015;SDS011;40919;43.236;21.590;2023-06-24T07:31:09;24.85;;;15.05;;
55015;SDS011;40919;43.236;21.590;2023-06-24T07:33:35;25.02;;;15.88;;
55015;SDS011;40919;43.236;21.590;2023-06-24T07:36:01;26.73;;;15.57;;
55015;SDS011;40919;43.236;21.590;2023-06-24T07:38:28;31.20;;;15.65;;
55015;SDS011;40919;43.236;21.590;2023-06-24T07:40:55;27.08;;;15.85;;
55015;SDS011;40919;43.236;21.590;2023-06-24T07:43:21;20.85;;;15.15;;
55015;SDS011;40919;43.236;21.590;2023-06-24T07:45:46;24.85;;;15.60;;
55015;SDS011;40919;43.236;21.590;2023-06-24T07:48:12;27.13;;;16.33;;
55015;SDS011;40919;43.236;21.590;2023-06-24T07:50:38;24.40;;;16.10;;
55015;SDS011;40919;43.236;21.590;2023-06-24T07:53:04;29.25;;;15.18;;
55015;SDS011;40919;43.236;21.590;2023-06-24T07:55:30;32.40;;;15.20;;
55015;SDS011;40919;43.236;21.590;2023-06-24T07:57:56;20.80;;;15.45;;
55015;SDS011;40919;43.236;21.590;2023-06-24T08:00:23;23.00;;;15.15;;
55015;SDS011;40919;43.236;21.590;2023-06-24T08:02:50;25.38;;;15.35;;
55015;SDS011;40919;43.236;21.590;2023-06-24T08:05:16;23.50;;;14.88;;
55015;SDS011;40919;43.236;21.590;2023-06-24T08:07:43;23.25;;;15.63;;
55015;SDS011;40919;43.236;21.590;2023-06-24T08:10:09;24.83;;;15.32;;
55015;SDS011;40919;43.236;21.590;2023-06-24T08:12:35;31.58;;;16.23;;
55015;SDS011;40919;43.236;21.590;2023-06-24T08:15:01;22.83;;;15.27;;
55015;SDS011;40919;43.236;21.590;2023-06-24T08:17:27;23.50;;;16.05;;
55015;SDS011;40919;43.236;21.590;2023-06-24T08:19:53;25.02;;;15.63;;
55015;SDS011;40919;43.236;21.590;2023-06-24T08:22:19;21.15;;;15.77;;
55015;SDS011;40919;43.236;21.590;2023-06-24T08:24:45;23.20;;;16.08;;
55015;SDS011;40919;43.236;21.590;2023-06-24T08:27:10;26.83;;;16.52;;
55015;SDS011;40919;43.236;21.590;2023-06-24T08:29:36;31.02;;;17.33;;
55015;SDS011;40919;43.236;21.590;2023-06-24T08:32:03;22.55;;;16.48;;
55015;SDS011;40919;43.236;21.590;2023-06-24T08:34:31;26.85;;;16.17;;
55015;SDS011;40919;43.236;21.590;2023-06-24T08:36:57;32.20;;;17.77;;
55015;SDS011;40919;43.236;21.590;2023-06-24T08:39:23;26.95;;;16.55;;
55015;SDS011;40919;43.236;21.590;2023-06-24T08:41:49;22.75;;;15.95;;
55015;SDS011;40919;43.236;21.590;2023-06-24T08:44:15;27.10;;;16.80;;
55015;SDS011;40919;43.236;21.590;2023-06-24T08:46:41;26.33;;;17.42;;
55015;SDS011;40919;43.236;21.590;2023-06-24T08:51:56;26.52;;;19.13;;
55015;SDS011;40919;43.236;21.590;2023-06-24T08:54:34;30.75;;;19.90;;
55015;SDS011;40919;43.236;21.590;2023-06-24T08:57:02;27.40;;;16.83;;
55015;SDS011;40919;43.236;21.590;2023-06-24T08:59:30;20.35;;;15.70;;
55015;SDS011;40919;43.236;21.590;2023-06-24T09:01:58;26.15;;;15.95;;
55015;SDS011;40919;43.236;21.590;2023-06-24T09:04:24;22.10;;;16.88;;
55015;SDS011;40919;43.236;21.590;2023-06-24T09:06:50;29.02;;;16.90;;
55015;SDS011;40919;43.236;21.590;2023-06-24T09:09:19;23.00;;;16.48;;
55015;SDS011;40919;43.236;21.590;2023-06-24T09:11:52;31.83;;;19.52;;
55015;SDS011;40919;43.236;21.590;2023-06-24T09:14:26;22.98;;;18.48;;
55015;SDS011;40919;43.236;21.590;2023-06-24T09:16:55;28.23;;;18.33;;
55015;SDS011;40919;43.236;21.590;2023-06-24T09:19:23;25.02;;;18.20;;
55015;SDS011;40919;43.236;21.590;2023-06-24T09:21:53;33.22;;;20.65;;
55015;SDS011;40919;43.236;21.590;2023-06-24T09:24:19;32.50;;;20.30;;
55015;SDS011;40919;43.236;21.590;2023-06-24T09:26:44;30.25;;;19.55;;
55015;SDS011;40919;43.236;21.590;2023-06-24T09:29:13;28.98;;;19.02;;
55015;SDS011;40919;43.236;21.590;2023-06-24T09:31:49;25.75;;;19.70;;
55015;SDS011;40919;43.236;21.590;2023-06-24T09:34:18;28.63;;;18.25;;
55015;SDS011;40919;43.236;21.590;2023-06-24T09:36:45;33.90;;;21.88;;
55015;SDS011;40919;43.236;21.590;2023-06-24T09:39:15;41.80;;;22.33;;
55015;SDS011;40919;43.236;21.590;2023-06-24T09:41:41;29.65;;;22.33;;
55015;SDS011;40919;43.236;21.590;2023-06-24T09:44:10;36.20;;;21.65;;
55015;SDS011;40919;43.236;21.590;2023-06-24T09:46:39;27.90;;;19.58;;
55015;SDS011;40919;43.236;21.590;2023-06-24T09:49:07;28.23;;;21.07;;
55015;SDS011;40919;43.236;21.590;2023-06-24T09:51:36;32.22;;;21.27;;
55015;SDS011;40919;43.236;21.590;2023-06-24T09:54:07;27.35;;;20.10;;
55015;SDS011;40919;43.236;21.590;2023-06-24T09:56:37;28.42;;;19.77;;
55015;SDS011;40919;43.236;21.590;2023-06-24T09:59:09;26.20;;;20.77;;
55015;SDS011;40919;43.236;21.590;2023-06-24T10:01:38;31.17;;;21.58;;
55015;SDS011;40919;43.236;21.590;2023-06-24T10:04:05;32.90;;;21.10;;
55015;SDS011;40919;43.236;21.590;2023-06-24T10:06:33;30.75;;;21.45;;
55015;SDS011;40919;43.236;21.590;2023-06-24T10:08:59;25.48;;;20.52;;
55015;SDS011;40919;43.236;21.590;2023-06-24T10:11:26;28.70;;;22.13;;
55015;SDS011;40919;43.236;21.590;2023-06-24T10:13:52;33.20;;;23.02;;
55015;SDS011;40919;43.236;21.590;2023-06-24T10:16:18;28.55;;;22.17;;
55015;SDS011;40919;43.236;21.590;2023-06-24T10:18:44;29.33;;;21.10;;
55015;SDS011;40919;43.236;21.590;2023-06-24T10:21:11;29.08;;;21.95;;
55015;SDS011;40919;43.236;21.590;2023-06-24T10:26:24;23.33;;;19.77;;
55015;SDS011;40919;43.236;21.590;2023-06-24T10:37:01;32.72;;;19.08;;
55015;SDS011;40919;43.236;21.590;2023-06-24T10:39:45;27.35;;;18.17;;
55015;SDS011;40919;43.236;21.590;2023-06-24T10:45:13;23.40;;;18.70;;
55015;SDS011;40919;43.236;21.590;2023-06-24T10:50:07;21.77;;;18.17;;
55015;SDS011;40919;43.236;21.590;2023-06-24T10:52:38;26.05;;;18.80;;
55015;SDS011;40919;43.236;21.590;2023-06-24T10:55:05;29.23;;;19.60;;
55015;SDS011;40919;43.236;21.590;2023-06-24T10:57:32;24.33;;;19.45;;
55015;SDS011;40919;43.236;21.590;2023-06-24T10:59:58;26.27;;;18.52;;
55015;SDS011;40919;43.236;21.590;2023-06-24T11:02:26;35.05;;;18.63;;
55015;SDS011;40919;43.236;21.590;2023-06-24T11:04:54;28.42;;;19.65;;
55015;SDS011;40919;43.236;21.590;2023-06-24T11:07:27;24.67;;;19.42;;
55015;SDS011;40919;43.236;21.590;2023-06-24T11:09:56;24.35;;;17.88;;
55015;SDS011;40919;43.236;21.590;2023-06-24T11:12:27;26.95;;;20.33;;
55015;SDS011;40919;43.236;21.590;2023-06-24T11:14:56;28.17;;;20.40;;
55015;SDS011;40919;43.236;21.590;2023-06-24T11:17:33;27.95;;;19.77;;
55015;SDS011;40919;43.236;21.590;2023-06-24T11:20:00;27.70;;;20.20;;
55015;SDS011;40919;43.236;21.590;2023-06-24T11:22:27;30.23;;;20.55;;
55015;SDS011;40919;43.236;21.590;2023-06-24T11:24:53;29.63;;;20.90;;
55015;SDS011;40919;43.236;21.590;2023-06-24T11:27:27;23.45;;;18.83;;
55015;SDS011;40919;43.236;21.590;2023-06-24T11:29:54;30.80;;;19.90;;
55015;SDS011;40919;43.236;21.590;2023-06-24T11:32:23;25.55;;;18.70;;
55015;SDS011;40919;43.236;21.590;2023-06-24T11:34:49;28.02;;;19.15;;
55015;SDS011;40919;43.236;21.590;2023-06-24T11:37:17;24.67;;;19.80;;
55015;SDS011;40919;43.236;21.590;2023-06-24T11:39:44;29.08;;;19.50;;
55015;SDS011;40919;43.236;21.590;2023-06-24T11:42:10;29.23;;;20.23;;
55015;SDS011;40919;43.236;21.590;2023-06-24T11:44:42;22.65;;;17.77;;
55015;SDS011;40919;43.236;21.590;2023-06-24T11:47:09;30.55;;;18.00;;
55015;SDS011;40919;43.236;21.590;2023-06-24T11:49:51;27.63;;;19.52;;
55015;SDS011;40919;43.236;21.590;2023-06-24T11:55:10;31.80;;;20.73;;
55015;SDS011;40919;43.236;21.590;2023-06-24T12:00:40;32.92;;;20.48;;
55015;SDS011;40919;43.236;21.590;2023-06-24T12:03:11;32.00;;;21.40;;
55015;SDS011;40919;43.236;21.590;2023-06-24T12:05:37;29.10;;;20.27;;
55015;SDS011;40919;43.236;21.590;2023-06-24T12:08:08;25.23;;;20.25;;
55015;SDS011;40919;43.236;21.590;2023-06-24T12:10:35;24.90;;;20.02;;
55015;SDS011;40919;43.236;21.590;2023-06-24T12:13:02;26.95;;;21.05;;
55015;SDS011;40919;43.236;21.590;2023-06-24T12:15:30;28.80;;;20.42;;
55015;SDS011;40919;43.236;21.590;2023-06-24T12:17:56;23.42;;;20.20;;
55015;SDS011;40919;43.236;21.590;2023-06-24T12:20:26;27.45;;;20.50;;
55015;SDS011;40919;43.236;21.590;2023-06-24T12:22:52;28.33;;;20.48;;
55015;SDS011;40919;43.236;21.590;2023-06-24T12:25:17;24.20;;;19.77;;
55015;SDS011;40919;43.236;21.590;2023-06-24T12:27:43;26.02;;;19.38;;
55015;SDS011;40919;43.236;21.590;2023-06-24T12:30:10;39.22;;;20.58;;
55015;SDS011;40919;43.236;21.590;2023-06-24T12:32:37;25.50;;;20.17;;
55015;SDS011;40919;43.236;21.590;2023-06-24T12:35:03;28.88;;;20.98;;
55015;SDS011;40919;43.236;21.590;2023-06-24T12:37:32;28.55;;;21.92;;
55015;SDS011;40919;43.236;21.590;2023-06-24T12:39:59;34.78;;;22.45;;
55015;SDS011;40919;43.236;21.590;2023-06-24T12:42:25;30.58;;;20.65;;
55015;SDS011;40919;43.236;21.590;2023-06-24T12:44:51;28.92;;;19.92;;
55015;SDS011;40919;43.236;21.590;2023-06-24T12:47:17;24.40;;;19.20;;
55015;SDS011;40919;43.236;21.590;2023-06-24T12:49:43;21.60;;;17.35;;
55015;SDS011;40919;43.236;21.590;2023-06-24T12:52:09;23.75;;;18.38;;
55015;SDS011;40919;43.236;21.590;2023-06-24T12:54:35;24.52;;;18.83;;
55015;SDS011;40919;43.236;21.590;2023-06-24T12:57:01;26.30;;;18.88;;
55015;SDS011;40919;43.236;21.590;2023-06-24T12:59:27;25.05;;;18.80;;
55015;SDS011;40919;43.236;21.590;2023-06-24T13:01:53;25.10;;;19.88;;
55015;SDS011;40919;43.236;21.590;2023-06-24T13:04:19;23.27;;;20.13;;
55015;SDS011;40919;43.236;21.590;2023-06-24T13:06:47;26.67;;;21.95;;
55015;SDS011;40919;43.236;21.590;2023-06-24T13:09:14;27.65;;;21.52;;
55015;SDS011;40919;43.236;21.590;2023-06-24T13:11:40;33.28;;;22.45;;
55015;SDS011;40919;43.236;21.590;2023-06-24T13:14:06;30.00;;;22.83;;
55015;SDS011;40919;43.236;21.590;2023-06-24T13:16:31;28.30;;;24.10;;
55015;SDS011;40919;43.236;21.590;2023-06-24T13:18:57;31.88;;;24.52;;
55015;SDS011;40919;43.236;21.590;2023-06-24T13:21:23;31.63;;;24.95;;
55015;SDS011;40919;43.236;21.590;2023-06-24T13:23:49;33.63;;;25.60;;
55015;SDS011;40919;43.236;21.590;2023-06-24T13:26:15;34.33;;;26.35;;
55015;SDS011;40919;43.236;21.590;2023-06-24T13:28:41;30.98;;;26.80;;
55015;SDS011;40919;43.236;21.590;2023-06-24T13:31:07;35.03;;;28.85;;
55015;SDS011;40919;43.236;21.590;2023-06-24T13:33:33;38.05;;;28.85;;
55015;SDS011;40919;43.236;21.590;2023-06-24T13:35:58;35.58;;;30.48;;
55015;SDS011;40919;43.236;21.590;2023-06-24T13:38:24;30.85;;;27.35;;
55015;SDS011;40919;43.236;21.590;2023-06-24T13:40:50;33.35;;;27.02;;
55015;SDS011;40919;43.236;21.590;2023-06-24T13:43:16;35.03;;;26.83;;
55015;SDS011;40919;43.236;21.590;2023-06-24T13:45:42;32.13;;;26.52;;
55015;SDS011;40919;43.236;21.590;2023-06-24T13:48:07;32.88;;;26.20;;
55015;SDS011;40919;43.236;21.590;2023-06-24T13:50:33;31.38;;;26.05;;
55015;SDS011;40919;43.236;21.590;2023-06-24T13:52:59;28.42;;;24.77;;
55015;SDS011;40919;43.236;21.590;2023-06-24T13:55:25;28.05;;;24.45;;
55015;SDS011;40919;43.236;21.590;2023-06-24T13:57:50;32.70;;;27.23;;
55015;SDS011;40919;43.236;21.590;2023-06-24T14:00:16;31.98;;;25.73;;
55015;SDS011;40919;43.236;21.590;2023-06-24T14:02:42;29.75;;;26.40;;
55015;SDS011;40919;43.236;21.590;2023-06-24T14:05:08;29.50;;;24.90;;
55015;SDS011;40919;43.236;21.590;2023-06-24T14:07:34;31.65;;;26.58;;
55015;SDS011;40919;43.236;21.590;2023-06-24T14:10:00;32.50;;;27.20;;
55015;SDS011;40919;43.236;21.590;2023-06-24T14:12:26;35.47;;;28.90;;
55015;SDS011;40919;43.236;21.590;2023-06-24T14:14:51;32.35;;;25.30;;
55015;SDS011;40919;43.236;21.590;2023-06-24T14:17:17;30.40;;;27.10;;
55015;SDS011;40919;43.236;21.590;2023-06-24T14:19:43;30.98;;;27.92;;
55015;SDS011;40919;43.236;21.590;2023-06-24T14:22:09;33.90;;;27.55;;
55015;SDS011;40919;43.236;21.590;2023-06-24T14:24:35;34.72;;;28.08;;
55015;SDS011;40919;43.236;21.590;2023-06-24T14:27:02;32.10;;;26.83;;
55015;SDS011;40919;43.236;21.590;2023-06-24T14:29:29;33.42;;;26.48;;
55015;SDS011;40919;43.236;21.590;2023-06-24T14:31:55;33.25;;;25.70;;
55015;SDS011;40919;43.236;21.590;2023-06-24T14:34:21;33.75;;;25.50;;
55015;SDS011;40919;43.236;21.590;2023-06-24T14:36:47;26.85;;;23.63;;
55015;SDS011;40919;43.236;21.590;2023-06-24T14:39:14;27.60;;;22.00;;
55015;SDS011;40919;43.236;21.590;2023-06-24T14:41:43;31.65;;;22.48;;
55015;SDS011;40919;43.236;21.590;2023-06-24T14:44:09;23.92;;;21.38;;